Airport View

Enter AWOS ICAO identifier for current METAR.

ex. KFNL

KAID 251710Z AUTO 08008KT 10SM BKN050 OVC065 09/03 A3012 RMK AO2 T00930028

25 Oct 2020 17:05

Frequency: 128.55

Phone: 765-378-1510

Other Area AWOS: KMIE - KMQJ - KMZZ - KTYQ

TAF AMD KIND 251420Z 2514/2618 06011KT P6SM OVC035 FM251500 07011KT P6SM OVC030 FM252100 04008KT P6SM VCSH OVC025 FM260500 02005KT P6SM OVC025